createdAt,value
2022-09-23T00:00:38.638Z,90.81
2022-09-23T00:01:39.622Z,90.91
2022-09-23T00:02:40.481Z,91.12
2022-09-23T00:03:41.344Z,90.70
2022-09-23T00:04:42.259Z,90.29
2022-09-23T00:05:43.273Z,90.29
2022-09-23T00:06:44.078Z,90.39
2022-09-23T00:07:44.963Z,90.50
2022-09-23T00:08:45.852Z,90.64
2022-09-23T00:09:46.760Z,90.75
2022-09-23T00:10:47.658Z,90.33
2022-09-23T00:11:48.591Z,90.23
2022-09-23T00:12:49.471Z,90.75
2022-09-23T00:13:50.376Z,90.95
2022-09-23T00:14:51.281Z,90.85
2022-09-23T00:15:52.174Z,90.75
2022-09-23T00:16:53.288Z,91.06
2022-09-23T00:17:53.729Z,91.37
2022-09-23T00:18:54.587Z,91.47
2022-09-23T00:19:55.485Z,91.58
2022-09-23T00:20:56.386Z,91.58
2022-09-23T00:21:57.248Z,91.47
2022-09-23T00:22:58.130Z,91.37
2022-09-23T00:23:59.071Z,91.78
2022-09-23T00:24:59.972Z,91.27
2022-09-23T00:26:00.855Z,91.27
2022-09-23T00:27:01.734Z,90.95
2022-09-23T00:28:02.628Z,91.16
2022-09-23T00:29:03.502Z,91.16
2022-09-23T00:30:04.397Z,91.06
2022-09-23T00:31:05.352Z,91.16
2022-09-23T00:32:05.792Z,91.16
2022-09-23T00:33:06.714Z,91.06
2022-09-23T00:34:07.557Z,91.20
2022-09-23T00:35:08.450Z,91.20
2022-09-23T00:36:09.351Z,91.62
2022-09-23T00:37:10.218Z,92.14
2022-09-23T00:38:11.101Z,92.55
2022-09-23T00:39:11.987Z,92.14
2022-09-23T00:40:12.902Z,92.03
2022-09-23T00:41:13.776Z,92.14
2022-09-23T00:42:14.291Z,92.35
2022-09-23T00:43:15.172Z,92.35
2022-09-23T00:44:16.068Z,92.24
2022-09-23T00:45:16.951Z,91.72
2022-09-23T00:46:17.906Z,91.72
2022-09-23T00:47:18.769Z,92.55
2022-09-23T00:48:19.666Z,92.55
2022-09-23T00:49:20.564Z,92.55
2022-09-23T00:50:21.460Z,92.66
2022-09-23T00:51:22.377Z,92.45
2022-09-23T00:52:23.263Z,92.55
2022-09-23T00:53:24.162Z,92.24
2022-09-23T00:54:25.088Z,91.83
2022-09-23T00:55:25.969Z,91.52
2022-09-23T00:56:26.872Z,91.52
2022-09-23T00:57:27.773Z,91.77
2022-09-23T00:58:28.677Z,91.87
2022-09-23T00:59:29.595Z,91.97
2022-09-23T01:00:30.495Z,92.08
2022-09-23T01:01:31.476Z,92.60
2022-09-23T01:02:32.368Z,92.39
2022-09-23T01:03:33.192Z,92.39
2022-09-23T01:04:34.105Z,93.12
2022-09-23T01:05:34.995Z,93.33
2022-09-23T01:06:35.920Z,93.54
2022-09-23T01:07:36.809Z,93.79
2022-09-23T01:08:37.712Z,93.37
2022-09-23T01:09:38.614Z,93.58
2022-09-23T01:10:39.515Z,93.99
2022-09-23T01:11:40.412Z,94.31
2022-09-23T01:12:41.294Z,94.93
2022-09-23T01:13:42.180Z,94.51
2022-09-23T01:14:43.079Z,94.62
2022-09-23T01:15:43.984Z,94.82
2022-09-23T01:16:44.943Z,95.03
2022-09-23T01:17:45.806Z,94.82
2022-09-23T01:18:46.677Z,94.62
2022-09-23T01:19:47.600Z,94.72
2022-09-23T01:20:48.466Z,95.25
2022-09-23T01:21:49.375Z,95.08
2022-09-23T01:22:50.266Z,94.82
2022-09-23T01:23:51.167Z,94.87
2022-09-23T01:24:52.078Z,95.39
2022-09-23T01:25:52.977Z,95.08
2022-09-23T01:26:53.870Z,95.08
2022-09-23T01:27:54.777Z,95.39
2022-09-23T01:28:55.671Z,95.81
2022-09-23T01:29:56.572Z,96.01
2022-09-23T01:30:57.562Z,95.50
2022-09-23T01:31:58.446Z,95.29
2022-09-23T01:32:59.329Z,95.39
2022-09-23T01:34:00.206Z,95.50
2022-09-23T01:35:01.101Z,95.29
2022-09-23T01:36:01.991Z,95.33
2022-09-23T01:37:03.037Z,95.54
2022-09-23T01:38:03.843Z,95.64
2022-09-23T01:39:04.744Z,95.75
2022-09-23T01:40:05.708Z,95.95
2022-09-23T01:41:06.551Z,95.75
2022-09-23T01:42:07.448Z,95.64
2022-09-23T01:43:08.319Z,95.54
2022-09-23T01:44:09.218Z,95.75
2022-09-23T01:45:10.109Z,95.75
2022-09-23T01:46:11.005Z,95.85
2022-09-23T01:47:11.882Z,96.52
2022-09-23T01:48:12.807Z,96.52
2022-09-23T01:49:13.657Z,96.73
2022-09-23T01:50:14.541Z,96.52
2022-09-23T01:51:15.428Z,96.52
2022-09-23T01:52:16.326Z,96.62
2022-09-23T01:53:17.203Z,96.31
2022-09-23T01:54:18.097Z,96.11
2022-09-23T01:55:18.969Z,96.11
2022-09-23T01:56:19.852Z,95.85
2022-09-23T01:57:20.736Z,95.75
2022-09-23T01:58:21.622Z,95.75
2022-09-23T01:59:22.514Z,95.95
2022-09-23T02:00:23.399Z,96.06
2022-09-23T02:01:24.328Z,96.48
2022-09-23T02:02:25.276Z,96.06
2022-09-23T02:03:26.129Z,96.06
2022-09-23T02:04:27.021Z,96.06
2022-09-23T02:05:27.905Z,95.75
2022-09-23T02:06:28.788Z,95.54
2022-09-23T02:07:29.693Z,95.64
2022-09-23T02:08:30.559Z,95.68
2022-09-23T02:09:31.447Z,95.48
2022-09-23T02:10:32.331Z,95.37
2022-09-23T02:11:33.215Z,95.48
2022-09-23T02:12:34.099Z,95.79
2022-09-23T02:13:34.990Z,96.00
2022-09-23T02:14:35.873Z,96.00
2022-09-23T02:15:36.757Z,96.00
2022-09-23T02:16:37.683Z,95.79
2022-09-23T02:17:38.535Z,95.89
2022-09-23T02:18:39.419Z,96.11
2022-09-23T02:19:40.323Z,96.11
2022-09-23T02:20:41.203Z,96.31
2022-09-23T02:21:42.086Z,96.31
2022-09-23T02:22:42.988Z,96.42
2022-09-23T02:23:43.850Z,96.42
2022-09-23T02:24:44.743Z,96.42
2022-09-23T02:25:45.634Z,96.52
2022-09-23T02:26:46.508Z,96.83
2022-09-23T02:27:47.398Z,96.73
2022-09-23T02:28:48.314Z,96.52
2022-09-23T02:29:49.214Z,96.52
2022-09-23T02:30:50.104Z,96.31
2022-09-23T02:31:51.030Z,96.11
2022-09-23T02:32:51.916Z,95.89
2022-09-23T02:33:52.812Z,95.68
2022-09-23T02:34:53.741Z,95.58
2022-09-23T02:35:54.617Z,95.58
2022-09-23T02:36:55.521Z,95.48
2022-09-23T02:37:56.429Z,95.58
2022-09-23T02:38:57.293Z,95.27
2022-09-23T02:39:58.190Z,95.42
2022-09-23T02:40:59.072Z,95.21
2022-09-23T02:41:59.952Z,95.42
2022-09-23T02:43:00.839Z,95.83
2022-09-23T02:44:01.777Z,96.15
2022-09-23T02:45:02.612Z,96.77
2022-09-23T02:46:03.571Z,97.09
2022-09-23T02:47:04.416Z,96.77
2022-09-23T02:48:05.297Z,96.36
2022-09-23T02:49:06.179Z,96.04
2022-09-23T02:50:07.078Z,95.94
2022-09-23T02:51:07.957Z,95.83
2022-09-23T02:52:08.848Z,95.94
2022-09-23T02:53:09.739Z,96.04
2022-09-23T02:54:10.612Z,96.15
2022-09-23T02:55:11.497Z,96.77
2022-09-23T02:56:12.380Z,96.77
2022-09-23T02:57:13.263Z,96.98
2022-09-23T02:58:14.157Z,97.09
2022-09-23T02:59:15.057Z,98.13
2022-09-23T03:00:15.928Z,98.65
2022-09-23T03:01:16.933Z,98.96
2022-09-23T03:02:17.901Z,99.38
2022-09-23T03:03:18.749Z,99.27
2022-09-23T03:04:19.644Z,99.07
2022-09-23T03:05:20.528Z,99.17
2022-09-23T03:06:21.418Z,98.86
2022-09-23T03:07:22.295Z,98.39
2022-09-23T03:08:23.191Z,97.98
2022-09-23T03:09:24.069Z,97.46
2022-09-23T03:10:24.953Z,96.94
2022-09-23T03:11:25.840Z,96.67
2022-09-23T03:12:26.715Z,96.15
2022-09-23T03:13:29.447Z,96.04
2022-09-23T03:14:28.458Z,96.77
2022-09-23T03:15:29.343Z,97.30
2022-09-23T03:16:30.287Z,97.50
2022-09-23T03:17:31.190Z,97.40
2022-09-23T03:18:32.058Z,96.98
2022-09-23T03:19:32.958Z,96.36
2022-09-23T03:20:33.845Z,95.52
2022-09-23T03:21:34.731Z,95.42
2022-09-23T03:22:35.609Z,95.52
2022-09-23T03:23:36.506Z,95.83
2022-09-23T03:24:37.379Z,95.78
2022-09-23T03:25:38.270Z,95.56
2022-09-23T03:26:39.150Z,95.25
2022-09-23T03:27:40.042Z,95.15
2022-09-23T03:28:40.914Z,94.94
2022-09-23T03:29:41.798Z,94.73
2022-09-23T03:30:42.682Z,94.78
2022-09-23T03:31:43.626Z,94.88
2022-09-23T03:32:44.468Z,95.19
2022-09-23T03:33:45.374Z,95.19
2022-09-23T03:34:46.288Z,95.76
2022-09-23T03:35:47.183Z,96.28
2022-09-23T03:36:48.068Z,96.70
2022-09-23T03:37:48.972Z,97.11
2022-09-23T03:38:49.896Z,97.43
2022-09-23T03:39:50.769Z,97.53
2022-09-23T03:40:51.707Z,97.43
2022-09-23T03:41:52.552Z,97.11
2022-09-23T03:42:53.425Z,96.91
2022-09-23T03:43:54.326Z,96.59
2022-09-23T03:44:55.220Z,96.38
2022-09-23T03:45:56.140Z,96.49
2022-09-23T03:46:57.017Z,96.53
2022-09-23T03:47:57.914Z,96.84
2022-09-23T03:48:58.794Z,97.05
2022-09-23T03:49:59.695Z,97.47
2022-09-23T03:51:00.573Z,97.58
2022-09-23T03:52:01.467Z,98.41
2022-09-23T03:53:02.342Z,98.72
2022-09-23T03:54:03.254Z,98.83
2022-09-23T03:55:04.130Z,98.77
2022-09-23T03:56:05.016Z,98.77
2022-09-23T03:57:05.899Z,98.56
2022-09-23T03:58:06.783Z,98.46
2022-09-23T03:59:07.667Z,98.56
2022-09-23T04:00:08.561Z,98.77
2022-09-23T04:01:09.479Z,99.08
2022-09-23T04:02:10.371Z,99.40
2022-09-23T04:03:12.041Z,99.61
2022-09-23T04:04:11.958Z,99.92
2022-09-23T04:05:12.842Z,99.99
2022-09-23T04:06:13.722Z,99.99
2022-09-23T04:07:14.612Z,99.99
2022-09-23T04:08:15.482Z,99.99
2022-09-23T04:09:16.388Z,99.99
2022-09-23T04:10:17.260Z,99.99
2022-09-23T04:11:18.143Z,99.99
2022-09-23T04:12:19.033Z,99.82
2022-09-23T04:13:19.909Z,99.82
2022-09-23T04:14:20.802Z,99.82
2022-09-23T04:15:21.689Z,99.82
2022-09-23T04:16:22.602Z,99.92
2022-09-23T04:17:23.466Z,99.82
2022-09-23T04:18:24.370Z,99.71
2022-09-23T04:19:25.285Z,99.82
2022-09-23T04:20:26.174Z,99.82
2022-09-23T04:21:27.073Z,99.92
2022-09-23T04:22:27.990Z,99.99
2022-09-23T04:23:28.884Z,99.99
2022-09-23T04:24:29.877Z,99.99
2022-09-23T04:25:30.698Z,99.99
2022-09-23T04:26:31.598Z,99.92
2022-09-23T04:27:37.483Z,99.82
2022-09-23T04:28:34.260Z,99.86
2022-09-23T04:29:34.159Z,99.99
2022-09-23T04:30:35.049Z,99.99
2022-09-23T04:31:36.018Z,99.86
2022-09-23T04:32:36.851Z,99.76
2022-09-23T04:33:37.735Z,99.86
2022-09-23T04:34:38.627Z,99.86
2022-09-23T04:35:40.487Z,99.86
2022-09-23T04:36:40.382Z,99.86
2022-09-23T04:37:41.271Z,99.96
2022-09-23T04:38:42.146Z,99.86
2022-09-23T04:39:43.065Z,99.99
2022-09-23T04:40:44.010Z,99.99
2022-09-23T04:41:44.816Z,99.96
2022-09-23T04:42:45.697Z,99.65
2022-09-23T04:43:46.584Z,99.55
2022-09-23T04:44:47.430Z,99.44
2022-09-23T04:45:48.263Z,99.34
2022-09-23T04:46:49.250Z,99.24
2022-09-23T04:47:50.126Z,99.24
2022-09-23T04:48:50.967Z,99.44
2022-09-23T04:49:51.802Z,99.55
2022-09-23T04:50:52.688Z,99.44
2022-09-23T04:51:53.587Z,99.76
2022-09-23T04:52:54.459Z,99.91
2022-09-23T04:53:55.359Z,99.86
2022-09-23T04:54:56.334Z,99.65
2022-09-23T04:55:57.140Z,99.65
2022-09-23T04:56:57.982Z,99.65
2022-09-23T04:57:58.831Z,99.65
2022-09-23T04:58:59.707Z,99.65
2022-09-23T05:00:00.491Z,99.80
2022-09-23T05:01:05.098Z,99.80
2022-09-23T05:02:02.222Z,99.91
2022-09-23T05:03:03.033Z,99.99
2022-09-23T05:04:03.861Z,99.99
2022-09-23T05:05:04.696Z,99.99
2022-09-23T05:06:05.521Z,99.99
2022-09-23T05:07:06.348Z,99.99
2022-09-23T05:08:07.192Z,99.99
2022-09-23T05:09:08.277Z,99.99
2022-09-23T05:10:08.680Z,99.99
2022-09-23T05:11:09.495Z,99.99
2022-09-23T05:12:10.319Z,99.99
2022-09-23T05:13:11.151Z,99.99
2022-09-23T05:14:11.989Z,99.99
2022-09-23T05:15:12.818Z,99.99
2022-09-23T05:16:13.733Z,99.99
2022-09-23T05:17:14.532Z,99.99
2022-09-23T05:18:20.170Z,99.99
2022-09-23T05:19:17.094Z,99.99
2022-09-23T05:20:16.923Z,99.99
2022-09-23T05:21:17.753Z,99.99
2022-09-23T05:22:18.587Z,99.99
2022-09-23T05:23:19.416Z,99.99
2022-09-23T05:24:20.259Z,99.99
2022-09-23T05:25:21.127Z,99.99
2022-09-23T05:26:21.934Z,99.99
2022-09-23T05:27:22.763Z,99.99
2022-09-23T05:28:23.586Z,99.99
2022-09-23T05:29:24.421Z,99.99
2022-09-23T05:30:25.268Z,99.99
2022-09-23T05:31:26.198Z,99.99
2022-09-23T05:32:26.985Z,99.99
2022-09-23T05:33:27.813Z,99.99
2022-09-23T05:34:28.642Z,99.99
2022-09-23T05:35:29.471Z,99.99
2022-09-23T05:36:33.213Z,99.99
2022-09-23T05:37:32.019Z,99.99
2022-09-23T05:38:31.848Z,99.99
2022-09-23T05:39:32.687Z,99.99
2022-09-23T05:40:33.621Z,99.99
2022-09-23T05:41:34.450Z,99.99
2022-09-23T05:42:35.278Z,99.99
2022-09-23T05:43:36.119Z,99.99
2022-09-23T05:44:36.947Z,99.99
2022-09-23T05:45:37.787Z,99.99
2022-09-23T05:46:38.713Z,99.99
2022-09-23T05:47:39.528Z,99.99
2022-09-23T05:48:40.358Z,99.99
2022-09-23T05:49:58.728Z,99.99
2022-09-23T05:50:42.922Z,99.99
2022-09-23T05:51:42.753Z,99.99
2022-09-23T05:52:43.586Z,99.99
2022-09-23T05:53:44.431Z,99.99
2022-09-23T05:54:45.265Z,99.86
2022-09-23T05:55:46.128Z,99.65
2022-09-23T05:56:46.950Z,99.55
2022-09-23T05:57:47.783Z,99.65
2022-09-23T05:58:48.622Z,99.76
2022-09-23T05:59:49.452Z,99.65
2022-09-23T06:00:50.282Z,99.76
2022-09-23T06:01:55.703Z,99.86
2022-09-23T06:02:52.907Z,99.96
2022-09-23T06:03:52.756Z,99.86
2022-09-23T06:04:53.571Z,99.86
2022-09-23T06:05:54.408Z,99.96
2022-09-23T06:06:55.245Z,99.99
2022-09-23T06:07:56.069Z,99.99
2022-09-23T06:08:56.909Z,99.99
2022-09-23T06:09:57.740Z,99.99
2022-09-23T06:10:58.591Z,99.99
2022-09-23T06:11:59.406Z,99.99
2022-09-23T06:13:00.236Z,99.99
2022-09-23T06:14:01.261Z,99.99
2022-09-23T06:15:01.631Z,99.99
2022-09-23T06:16:02.502Z,99.99
2022-09-23T06:17:03.289Z,99.99
2022-09-23T06:18:04.118Z,99.99
2022-09-23T06:19:05.793Z,99.82
2022-09-23T06:20:05.670Z,99.82
2022-09-23T06:21:06.490Z,99.99
2022-09-23T06:22:07.358Z,99.99
2022-09-23T06:23:10.318Z,99.99
2022-09-23T06:24:09.035Z,99.99
2022-09-23T06:25:09.876Z,99.92
2022-09-23T06:26:10.711Z,99.99
2022-09-23T06:27:11.530Z,99.99
2022-09-23T06:28:12.349Z,99.99
2022-09-23T06:29:13.196Z,99.99
2022-09-23T06:30:14.018Z,99.99
2022-09-23T06:31:14.877Z,99.99
2022-09-23T06:32:15.669Z,99.99
2022-09-23T06:33:18.935Z,99.99
2022-09-23T06:34:18.552Z,99.99
2022-09-23T06:35:26.307Z,99.99
2022-09-23T06:36:35.618Z,99.99
2022-09-23T06:37:21.005Z,99.99
2022-09-23T06:38:20.364Z,99.99
2022-09-23T06:39:21.197Z,99.99
2022-09-23T06:40:22.100Z,99.99
2022-09-23T06:41:22.888Z,99.99
2022-09-23T06:42:23.697Z,99.99
2022-09-23T06:43:24.517Z,99.99
2022-09-23T06:44:25.365Z,99.99
2022-09-23T06:45:26.188Z,99.99
2022-09-23T06:46:27.065Z,99.99
2022-09-23T06:47:27.856Z,99.99
2022-09-23T06:48:28.688Z,99.99
2022-09-23T06:49:29.518Z,99.99
2022-09-23T06:50:30.368Z,99.99
2022-09-23T06:51:31.182Z,99.99
2022-09-23T06:52:32.011Z,99.99
2022-09-23T06:53:32.839Z,99.14
2022-09-23T06:54:33.681Z,98.57
2022-09-23T06:55:34.500Z,98.36
2022-09-23T06:56:39.066Z,98.32
2022-09-23T06:57:35.850Z,97.34
2022-09-23T06:58:36.681Z,96.15
2022-09-23T06:59:37.526Z,96.48
2022-09-23T07:00:38.352Z,96.75
2022-09-23T07:01:39.430Z,97.43
2022-09-23T07:02:40.024Z,96.97
2022-09-23T07:03:40.825Z,95.26
2022-09-23T07:04:41.664Z,94.39
2022-09-23T07:05:42.495Z,94.56
2022-09-23T07:06:43.328Z,95.71
2022-09-23T07:07:44.156Z,93.91
2022-09-23T07:08:45.005Z,90.91
2022-09-23T07:09:45.839Z,90.97
2022-09-23T07:10:46.657Z,91.50
2022-09-23T07:11:47.524Z,89.86
2022-09-23T07:12:48.326Z,88.47
2022-09-23T07:13:49.137Z,90.70
2022-09-23T07:14:49.987Z,90.41
2022-09-23T07:15:50.857Z,88.20
2022-09-23T07:16:51.667Z,87.07
2022-09-23T07:17:52.497Z,85.17
2022-09-23T07:18:53.335Z,86.00
2022-09-23T07:19:54.170Z,86.47
2022-09-23T07:20:55.007Z,86.43
2022-09-23T07:21:55.828Z,83.92
2022-09-23T07:22:56.659Z,83.06
2022-09-23T07:23:57.498Z,82.55
2022-09-23T07:24:58.328Z,81.11
2022-09-23T07:25:59.157Z,81.52
2022-09-23T07:27:00.012Z,82.92
2022-09-23T07:28:00.815Z,83.91
2022-09-23T07:29:01.656Z,84.18
2022-09-23T07:30:02.500Z,84.14
2022-09-23T07:31:03.451Z,82.36
2022-09-23T07:32:13.149Z,81.91
2022-09-23T07:33:17.944Z,81.87
2022-09-23T07:34:06.735Z,80.51
2022-09-23T07:35:06.548Z,79.64
2022-09-23T07:36:07.369Z,78.79
2022-09-23T07:37:08.208Z,79.37
2022-09-23T07:38:09.050Z,77.22
2022-09-23T07:39:09.891Z,74.32
2022-09-23T07:40:10.780Z,72.69
2022-09-23T07:41:11.545Z,73.40
2022-09-23T07:42:12.409Z,71.19
2022-09-23T07:43:13.209Z,70.67
2022-09-23T07:44:14.051Z,71.32
2022-09-23T07:45:14.909Z,69.71
2022-09-23T07:46:15.781Z,70.98
2022-09-23T07:47:16.570Z,71.59
2022-09-23T07:48:17.391Z,70.26
2022-09-23T07:49:18.250Z,72.65
2022-09-23T07:50:19.071Z,74.87
2022-09-23T07:51:19.897Z,75.48
2022-09-23T07:52:20.718Z,74.46
2022-09-23T07:53:21.546Z,74.66
2022-09-23T07:54:22.387Z,75.86
2022-09-23T07:55:23.216Z,76.43
2022-09-23T07:56:24.047Z,73.13
2022-09-23T07:57:24.899Z,73.74
2022-09-23T07:58:25.698Z,72.69
2022-09-23T07:59:26.537Z,72.45
2022-09-23T08:00:27.367Z,70.00
2022-09-23T08:01:28.224Z,68.43
2022-09-23T08:02:29.069Z,70.57
2022-09-23T08:03:29.855Z,68.30
2022-09-23T08:04:30.687Z,67.58
2022-09-23T08:05:31.515Z,70.00
2022-09-23T08:06:32.342Z,69.69
2022-09-23T08:07:33.165Z,66.02
2022-09-23T08:08:33.997Z,64.25
2022-09-23T08:09:34.837Z,65.48
2022-09-23T08:10:35.667Z,66.19
2022-09-23T08:11:36.498Z,67.01
2022-09-23T08:12:37.398Z,67.29
2022-09-23T08:13:38.160Z,65.52
2022-09-23T08:14:38.995Z,65.92
2022-09-23T08:15:39.869Z,64.57
2022-09-23T08:16:40.664Z,65.28
2022-09-23T08:17:41.493Z,64.47
2022-09-23T08:18:42.313Z,62.46
2022-09-23T08:19:43.151Z,63.51
2022-09-23T08:20:47.056Z,64.02
2022-09-23T08:21:44.903Z,65.04
2022-09-23T08:22:45.730Z,63.95
2022-09-23T08:23:46.552Z,63.03
2022-09-23T08:24:47.392Z,63.16
2022-09-23T08:25:48.242Z,64.79
2022-09-23T08:26:49.050Z,66.12
2022-09-23T08:27:49.897Z,66.74
2022-09-23T08:28:50.708Z,67.04
2022-09-23T08:29:51.547Z,67.04
2022-09-23T08:30:52.427Z,66.83
2022-09-23T08:31:53.207Z,66.50
2022-09-23T08:32:54.050Z,65.78
2022-09-23T08:33:54.866Z,65.07
2022-09-23T08:34:55.706Z,62.82
2022-09-23T08:35:56.535Z,61.80
2022-09-23T08:36:57.366Z,62.32
2022-09-23T08:37:58.194Z,63.34
2022-09-23T08:38:59.025Z,64.66
2022-09-23T08:39:59.867Z,64.66
2022-09-23T08:41:00.698Z,64.56
2022-09-23T08:42:01.529Z,64.66
2022-09-23T08:43:02.377Z,65.37
2022-09-23T08:44:03.295Z,65.55
2022-09-23T08:45:04.082Z,65.14
2022-09-23T08:46:04.948Z,64.63
2022-09-23T08:47:05.748Z,63.61
2022-09-23T08:48:09.599Z,63.28
2022-09-23T08:49:08.304Z,61.04
2022-09-23T08:50:08.135Z,60.42
2022-09-23T08:51:08.955Z,61.37
2022-09-23T08:52:09.784Z,61.68
2022-09-23T08:53:10.603Z,61.47
2022-09-23T08:54:11.441Z,61.37
2022-09-23T08:55:12.261Z,60.86
2022-09-23T08:56:13.098Z,61.16
2022-09-23T08:57:13.908Z,60.25
2022-09-23T08:58:24.971Z,60.14
2022-09-23T08:59:16.470Z,58.31
2022-09-23T09:00:16.304Z,60.14
2022-09-23T09:01:17.204Z,62.29
2022-09-23T09:02:18.050Z,62.49
2022-09-23T09:03:18.840Z,62.70
2022-09-23T09:04:19.679Z,61.16
2022-09-23T09:05:20.508Z,62.18
2022-09-23T09:06:21.339Z,62.59
2022-09-23T09:07:36.201Z,63.41
2022-09-23T09:08:23.872Z,63.10
2022-09-23T09:09:23.702Z,63.20
2022-09-23T09:10:24.531Z,63.82
2022-09-23T09:11:25.363Z,63.82
2022-09-23T09:12:26.191Z,64.32
2022-09-23T09:13:27.040Z,64.09
2022-09-23T09:14:27.860Z,64.20
2022-09-23T09:15:28.792Z,62.97
2022-09-23T09:16:55.387Z,62.26
2022-09-23T09:17:34.932Z,61.75
2022-09-23T09:18:30.916Z,61.04
2022-09-23T09:19:31.743Z,60.83
2022-09-23T09:20:32.573Z,61.44
2022-09-23T09:21:33.405Z,58.89
2022-09-23T09:22:34.275Z,60.73
2022-09-23T09:23:35.073Z,59.71
2022-09-23T09:24:35.905Z,58.59
2022-09-23T09:25:36.732Z,58.59
2022-09-23T09:26:37.556Z,57.67
2022-09-23T09:27:38.394Z,60.05
2022-09-23T09:28:39.238Z,60.86
2022-09-23T09:29:40.318Z,59.91
2022-09-23T09:30:41.164Z,59.41
2022-09-23T09:31:41.629Z,59.81
2022-09-23T09:32:42.460Z,58.56
2022-09-23T09:33:43.294Z,57.65
2022-09-23T09:34:44.131Z,56.93
2022-09-23T09:35:44.963Z,57.85
2022-09-23T09:36:45.790Z,56.32
2022-09-23T09:37:46.623Z,57.34
2022-09-23T09:38:47.450Z,58.15
2022-09-23T09:39:48.290Z,60.09
2022-09-23T09:40:49.153Z,59.66
2022-09-23T09:41:49.953Z,60.06
2022-09-23T09:42:50.782Z,59.05
2022-09-23T09:43:51.820Z,57.90
2022-09-23T09:44:52.574Z,57.29
2022-09-23T09:45:57.529Z,57.08
2022-09-23T09:46:54.008Z,57.69
2022-09-23T09:47:54.793Z,57.46
2022-09-23T09:48:55.632Z,58.78
2022-09-23T09:49:56.464Z,59.39
2022-09-23T09:50:57.282Z,56.21
2022-09-23T09:51:58.115Z,56.62
2022-09-23T09:52:58.887Z,56.93
2022-09-23T09:53:59.725Z,56.73
2022-09-23T09:55:00.554Z,56.93
2022-09-23T09:56:04.910Z,58.35
2022-09-23T09:57:02.255Z,59.24
2022-09-23T09:58:03.083Z,60.15
2022-09-23T09:59:03.929Z,60.46
2022-09-23T10:00:04.742Z,59.84
2022-09-23T10:01:05.607Z,59.24
2022-09-23T10:02:06.389Z,56.90
2022-09-23T10:03:07.219Z,57.08
2022-09-23T10:04:08.153Z,56.29
2022-09-23T10:05:08.958Z,56.80
2022-09-23T10:06:09.789Z,56.39
2022-09-23T10:07:10.618Z,56.98
2022-09-23T10:08:11.446Z,57.48
2022-09-23T10:09:12.286Z,57.18
2022-09-23T10:10:28.861Z,57.99
2022-09-23T10:11:14.828Z,58.60
2022-09-23T10:12:14.657Z,59.52
2022-09-23T10:13:15.494Z,59.89
2022-09-23T10:14:16.346Z,60.50
2022-09-23T10:15:17.147Z,57.66
2022-09-23T10:16:18.019Z,58.78
2022-09-23T10:17:18.807Z,57.53
2022-09-23T10:18:19.709Z,56.52
2022-09-23T10:19:20.487Z,56.62
2022-09-23T10:20:21.317Z,57.03
2022-09-23T10:21:27.530Z,56.92
2022-09-23T10:22:23.861Z,55.40
2022-09-23T10:23:23.691Z,56.01
2022-09-23T10:24:24.529Z,55.71
2022-09-23T10:25:25.349Z,55.40
2022-09-23T10:26:26.202Z,55.80
2022-09-23T10:27:27.021Z,56.11
2022-09-23T10:28:27.851Z,56.01
2022-09-23T10:29:28.807Z,55.50
2022-09-23T10:30:29.585Z,56.52
2022-09-23T10:31:30.389Z,56.31
2022-09-23T10:32:31.218Z,56.72
2022-09-23T10:33:32.054Z,56.31
2022-09-23T10:34:32.888Z,57.12
2022-09-23T10:35:33.717Z,57.53
2022-09-23T10:36:34.547Z,57.23
2022-09-23T10:37:35.397Z,58.04
2022-09-23T10:38:36.229Z,57.64
2022-09-23T10:39:37.061Z,58.45
2022-09-23T10:40:38.032Z,56.62
2022-09-23T10:41:38.873Z,57.23
2022-09-23T10:42:39.701Z,57.43
2022-09-23T10:43:40.521Z,56.31
2022-09-23T10:44:41.381Z,56.62
2022-09-23T10:45:43.368Z,56.82
2022-09-23T10:46:42.802Z,56.62
2022-09-23T10:47:43.572Z,57.43
2022-09-23T10:48:44.401Z,57.12
2022-09-23T10:49:45.242Z,58.14
2022-09-23T10:50:46.075Z,58.04
2022-09-23T10:51:46.890Z,56.92
2022-09-23T10:52:47.719Z,57.03
2022-09-23T10:53:48.549Z,57.23
2022-09-23T10:54:49.393Z,57.93
2022-09-23T10:55:50.223Z,57.84
2022-09-23T10:56:51.053Z,57.40
2022-09-23T10:57:51.886Z,57.40
2022-09-23T10:58:52.713Z,58.22
2022-09-23T10:59:53.683Z,59.12
2022-09-23T11:00:54.454Z,58.62
2022-09-23T11:01:55.331Z,57.71
2022-09-23T11:02:56.101Z,57.40
2022-09-23T11:03:56.931Z,57.60
2022-09-23T11:04:57.814Z,57.17
2022-09-23T11:05:58.616Z,57.88
2022-09-23T11:06:59.443Z,58.39
2022-09-23T11:08:00.264Z,57.98
2022-09-23T11:09:01.102Z,58.90
2022-09-23T11:10:01.937Z,59.50
2022-09-23T11:11:02.762Z,57.78
2022-09-23T11:12:03.592Z,57.58
2022-09-23T11:13:04.420Z,57.68
2022-09-23T11:14:05.381Z,58.29
2022-09-23T11:15:05.763Z,58.39
2022-09-23T11:16:06.560Z,58.29
2022-09-23T11:17:07.538Z,58.29
2022-09-23T11:18:08.318Z,58.59
2022-09-23T11:19:09.159Z,58.56
2022-09-23T11:20:09.976Z,58.59
2022-09-23T11:21:10.804Z,58.76
2022-09-23T11:22:11.636Z,58.87
2022-09-23T11:23:12.465Z,58.87
2022-09-23T11:24:13.297Z,58.87
2022-09-23T11:25:14.125Z,59.07
2022-09-23T11:26:14.955Z,59.78
2022-09-23T11:27:15.786Z,58.97
2022-09-23T11:28:16.604Z,59.17
2022-09-23T11:29:17.443Z,59.58
2022-09-23T11:30:18.280Z,59.45
2022-09-23T11:31:19.251Z,60.77
2022-09-23T11:32:20.042Z,60.57
2022-09-23T11:33:20.872Z,61.27
2022-09-23T11:34:21.927Z,61.37
2022-09-23T11:35:22.251Z,61.17
2022-09-23T11:36:23.082Z,61.65
2022-09-23T11:37:23.909Z,60.43
2022-09-23T11:38:24.742Z,59.83
2022-09-23T11:39:25.579Z,59.52
2022-09-23T11:40:26.476Z,57.50
2022-09-23T11:41:27.267Z,58.11
2022-09-23T11:42:28.089Z,58.51
2022-09-23T11:43:28.916Z,58.11
2022-09-23T11:44:29.756Z,58.81
2022-09-23T11:45:30.760Z,59.22
2022-09-23T11:46:31.604Z,59.32
2022-09-23T11:47:35.333Z,60.03
2022-09-23T11:48:34.099Z,59.83
2022-09-23T11:49:33.962Z,59.80
2022-09-23T11:50:34.809Z,59.09
2022-09-23T11:51:35.615Z,59.09
2022-09-23T11:52:36.446Z,60.20
2022-09-23T11:53:37.283Z,60.61
2022-09-23T11:54:38.114Z,60.30
2022-09-23T11:55:43.424Z,60.00
2022-09-23T11:56:44.362Z,59.90
2022-09-23T11:57:48.503Z,60.41
2022-09-23T11:58:43.816Z,60.20
2022-09-23T11:59:42.932Z,59.19
2022-09-23T12:00:46.617Z,59.80
2022-09-23T12:01:45.812Z,59.59
2022-09-23T12:02:45.781Z,60.00
2022-09-23T12:03:45.305Z,60.41
2022-09-23T12:04:55.887Z,59.70
2022-09-23T12:05:47.583Z,59.80
2022-09-23T12:06:46.914Z,59.80
2022-09-23T12:07:47.930Z,59.70
2022-09-23T12:08:48.700Z,60.91
2022-09-23T12:09:58.154Z,60.81
2022-09-23T12:10:51.254Z,60.98
2022-09-23T12:11:51.082Z,60.98
2022-09-23T12:12:51.908Z,60.48
2022-09-23T12:13:52.738Z,60.27
2022-09-23T12:14:53.597Z,59.97
2022-09-23T12:15:54.445Z,60.27
2022-09-23T12:16:55.346Z,60.68
2022-09-23T12:17:56.202Z,60.78
2022-09-23T12:18:57.039Z,60.68
2022-09-23T12:19:57.876Z,61.08
2022-09-23T12:20:58.693Z,60.65
2022-09-23T12:21:59.523Z,60.35
2022-09-23T12:23:00.350Z,59.84
2022-09-23T12:24:01.170Z,60.05
2022-09-23T12:25:02.012Z,60.85
2022-09-23T12:26:02.840Z,61.36
2022-09-23T12:27:03.661Z,61.16
2022-09-23T12:28:04.490Z,60.35
2022-09-23T12:29:05.319Z,59.84
2022-09-23T12:30:06.166Z,59.94
2022-09-23T12:31:07.092Z,59.64
2022-09-23T12:32:07.898Z,59.94
2022-09-23T12:33:08.729Z,60.75
2022-09-23T12:34:09.558Z,60.85
2022-09-23T12:35:10.398Z,60.96
2022-09-23T12:36:11.244Z,61.36
2022-09-23T12:37:12.070Z,60.85
2022-09-23T12:38:12.898Z,60.45
2022-09-23T12:39:13.718Z,60.96
2022-09-23T12:40:14.602Z,59.84
2022-09-23T12:41:15.386Z,60.14
2022-09-23T12:42:16.214Z,59.84
2022-09-23T12:43:17.045Z,60.45
2022-09-23T12:44:17.873Z,60.96
2022-09-23T12:45:18.726Z,60.65
2022-09-23T12:46:19.690Z,59.94
2022-09-23T12:47:20.508Z,60.14
2022-09-23T12:48:21.336Z,60.96
2022-09-23T12:49:22.166Z,61.05
2022-09-23T12:50:24.499Z,60.25
2022-09-23T12:51:23.859Z,60.14
2022-09-23T12:52:24.687Z,60.25
2022-09-23T12:53:25.519Z,60.14
2022-09-23T12:54:26.348Z,60.45
2022-09-23T12:55:27.178Z,60.35
2022-09-23T12:56:28.006Z,60.35
2022-09-23T12:57:28.835Z,59.94
2022-09-23T12:58:29.665Z,60.45
2022-09-23T12:59:30.498Z,61.46
2022-09-23T13:00:34.213Z,60.65
2022-09-23T13:01:32.365Z,60.55
2022-09-23T13:02:33.301Z,60.45
2022-09-23T13:03:34.084Z,60.55